sensor_id;sensor_type;location;lat;lon;timestamp;P1;durP1;ratioP1;P2;durP2;ratioP2
71150;SDS011;59071;42.138;24.768;2024-02-21T00:01:21;45.20;;;23.30;;
71150;SDS011;59071;42.138;24.768;2024-02-21T00:03:47;48.33;;;23.70;;
71150;SDS011;59071;42.138;24.768;2024-02-21T00:06:12;45.90;;;23.25;;
71150;SDS011;59071;42.138;24.768;2024-02-21T00:08:37;46.17;;;23.20;;
71150;SDS011;59071;42.138;24.768;2024-02-21T00:11:03;41.58;;;23.05;;
71150;SDS011;59071;42.138;24.768;2024-02-21T00:13:29;45.80;;;23.58;;
71150;SDS011;59071;42.138;24.768;2024-02-21T00:15:54;42.88;;;22.85;;
71150;SDS011;59071;42.138;24.768;2024-02-21T00:18:20;44.35;;;22.92;;
71150;SDS011;59071;42.138;24.768;2024-02-21T00:20:45;43.40;;;23.73;;
71150;SDS011;59071;42.138;24.768;2024-02-21T00:23:11;43.25;;;22.70;;
71150;SDS011;59071;42.138;24.768;2024-02-21T00:25:36;43.55;;;23.45;;
71150;SDS011;59071;42.138;24.768;2024-02-21T00:28:02;46.08;;;24.73;;
71150;SDS011;59071;42.138;24.768;2024-02-21T00:30:28;45.80;;;24.98;;
71150;SDS011;59071;42.138;24.768;2024-02-21T00:32:53;45.67;;;24.50;;
71150;SDS011;59071;42.138;24.768;2024-02-21T00:35:19;47.50;;;24.55;;
71150;SDS011;59071;42.138;24.768;2024-02-21T00:37:44;46.75;;;24.65;;
71150;SDS011;59071;42.138;24.768;2024-02-21T00:40:09;45.65;;;24.30;;
71150;SDS011;59071;42.138;24.768;2024-02-21T00:42:35;48.17;;;24.10;;
71150;SDS011;59071;42.138;24.768;2024-02-21T00:45:01;44.85;;;24.67;;
71150;SDS011;59071;42.138;24.768;2024-02-21T00:47:26;50.55;;;24.95;;
71150;SDS011;59071;42.138;24.768;2024-02-21T00:49:52;45.95;;;24.13;;
71150;SDS011;59071;42.138;24.768;2024-02-21T00:52:17;45.97;;;25.05;;
71150;SDS011;59071;42.138;24.768;2024-02-21T00:54:43;46.95;;;23.98;;
71150;SDS011;59071;42.138;24.768;2024-02-21T00:57:08;48.65;;;25.30;;
71150;SDS011;59071;42.138;24.768;2024-02-21T00:59:33;47.67;;;24.80;;
71150;SDS011;59071;42.138;24.768;2024-02-21T01:01:59;46.58;;;23.70;;
71150;SDS011;59071;42.138;24.768;2024-02-21T01:04:24;50.80;;;25.02;;
71150;SDS011;59071;42.138;24.768;2024-02-21T01:06:50;49.50;;;24.63;;
71150;SDS011;59071;42.138;24.768;2024-02-21T01:09:15;52.10;;;26.38;;
71150;SDS011;59071;42.138;24.768;2024-02-21T01:11:40;46.92;;;25.38;;
71150;SDS011;59071;42.138;24.768;2024-02-21T01:14:06;48.38;;;26.23;;
71150;SDS011;59071;42.138;24.768;2024-02-21T01:16:31;53.40;;;25.63;;
71150;SDS011;59071;42.138;24.768;2024-02-21T01:18:56;49.53;;;25.98;;
71150;SDS011;59071;42.138;24.768;2024-02-21T01:21:22;46.03;;;24.63;;
71150;SDS011;59071;42.138;24.768;2024-02-21T01:23:48;51.75;;;24.80;;
71150;SDS011;59071;42.138;24.768;2024-02-21T01:26:13;50.00;;;25.85;;
71150;SDS011;59071;42.138;24.768;2024-02-21T01:28:40;50.50;;;25.42;;
71150;SDS011;59071;42.138;24.768;2024-02-21T01:31:06;50.17;;;25.50;;
71150;SDS011;59071;42.138;24.768;2024-02-21T01:33:32;46.78;;;24.80;;
71150;SDS011;59071;42.138;24.768;2024-02-21T01:36:03;50.17;;;26.15;;
71150;SDS011;59071;42.138;24.768;2024-02-21T01:38:28;53.63;;;25.60;;
71150;SDS011;59071;42.138;24.768;2024-02-21T01:40:54;49.67;;;25.63;;
71150;SDS011;59071;42.138;24.768;2024-02-21T01:43:20;49.30;;;25.20;;
71150;SDS011;59071;42.138;24.768;2024-02-21T01:45:49;48.38;;;25.50;;
71150;SDS011;59071;42.138;24.768;2024-02-21T01:50:44;47.90;;;24.92;;
71150;SDS011;59071;42.138;24.768;2024-02-21T01:53:11;52.33;;;26.60;;
71150;SDS011;59071;42.138;24.768;2024-02-21T01:55:44;48.25;;;25.58;;
71150;SDS011;59071;42.138;24.768;2024-02-21T01:58:11;50.85;;;26.25;;
71150;SDS011;59071;42.138;24.768;2024-02-21T02:00:38;51.33;;;26.42;;
71150;SDS011;59071;42.138;24.768;2024-02-21T02:03:06;51.55;;;26.48;;
71150;SDS011;59071;42.138;24.768;2024-02-21T02:05:35;53.53;;;26.73;;
71150;SDS011;59071;42.138;24.768;2024-02-21T02:08:01;51.67;;;26.02;;
71150;SDS011;59071;42.138;24.768;2024-02-21T02:10:26;53.10;;;26.48;;
71150;SDS011;59071;42.138;24.768;2024-02-21T02:12:51;47.80;;;26.50;;
71150;SDS011;59071;42.138;24.768;2024-02-21T02:15:17;49.97;;;25.70;;
71150;SDS011;59071;42.138;24.768;2024-02-21T02:17:43;55.15;;;26.75;;
71150;SDS011;59071;42.138;24.768;2024-02-21T02:20:08;49.28;;;26.00;;
71150;SDS011;59071;42.138;24.768;2024-02-21T02:22:34;49.55;;;26.67;;
71150;SDS011;59071;42.138;24.768;2024-02-21T02:25:02;52.10;;;27.15;;
71150;SDS011;59071;42.138;24.768;2024-02-21T02:27:29;50.22;;;26.17;;
71150;SDS011;59071;42.138;24.768;2024-02-21T02:29:54;53.95;;;27.15;;
71150;SDS011;59071;42.138;24.768;2024-02-21T02:32:19;52.33;;;27.40;;
71150;SDS011;59071;42.138;24.768;2024-02-21T02:34:45;51.70;;;27.35;;
71150;SDS011;59071;42.138;24.768;2024-02-21T02:37:10;58.22;;;26.73;;
71150;SDS011;59071;42.138;24.768;2024-02-21T02:39:35;50.28;;;26.25;;
71150;SDS011;59071;42.138;24.768;2024-02-21T02:42:01;48.88;;;26.00;;
71150;SDS011;59071;42.138;24.768;2024-02-21T02:44:27;52.17;;;26.88;;
71150;SDS011;59071;42.138;24.768;2024-02-21T02:46:52;56.03;;;26.88;;
71150;SDS011;59071;42.138;24.768;2024-02-21T02:49:18;52.85;;;27.13;;
71150;SDS011;59071;42.138;24.768;2024-02-21T02:51:43;53.60;;;27.05;;
71150;SDS011;59071;42.138;24.768;2024-02-21T02:54:09;56.65;;;28.25;;
71150;SDS011;59071;42.138;24.768;2024-02-21T02:56:35;58.42;;;29.23;;
71150;SDS011;59071;42.138;24.768;2024-02-21T02:59:00;58.03;;;29.13;;
71150;SDS011;59071;42.138;24.768;2024-02-21T03:01:25;56.22;;;28.38;;
71150;SDS011;59071;42.138;24.768;2024-02-21T03:03:51;59.80;;;30.23;;
71150;SDS011;59071;42.138;24.768;2024-02-21T03:06:16;61.95;;;29.55;;
71150;SDS011;59071;42.138;24.768;2024-02-21T03:08:42;54.22;;;29.40;;
71150;SDS011;59071;42.138;24.768;2024-02-21T03:11:07;59.08;;;29.20;;
71150;SDS011;59071;42.138;24.768;2024-02-21T03:13:33;62.03;;;29.23;;
71150;SDS011;59071;42.138;24.768;2024-02-21T03:15:59;63.17;;;29.67;;
71150;SDS011;59071;42.138;24.768;2024-02-21T03:18:24;66.05;;;30.75;;
71150;SDS011;59071;42.138;24.768;2024-02-21T03:20:49;58.42;;;29.55;;
71150;SDS011;59071;42.138;24.768;2024-02-21T03:23:15;55.42;;;28.45;;
71150;SDS011;59071;42.138;24.768;2024-02-21T03:25:40;59.95;;;29.80;;
71150;SDS011;59071;42.138;24.768;2024-02-21T03:28:06;65.38;;;30.92;;
71150;SDS011;59071;42.138;24.768;2024-02-21T03:30:31;59.75;;;30.50;;
71150;SDS011;59071;42.138;24.768;2024-02-21T03:32:58;57.55;;;29.27;;
71150;SDS011;59071;42.138;24.768;2024-02-21T03:35:24;54.08;;;27.65;;
71150;SDS011;59071;42.138;24.768;2024-02-21T03:37:51;51.92;;;26.42;;
71150;SDS011;59071;42.138;24.768;2024-02-21T03:40:17;58.30;;;28.15;;
71150;SDS011;59071;42.138;24.768;2024-02-21T03:42:42;54.50;;;27.17;;
71150;SDS011;59071;42.138;24.768;2024-02-21T03:45:08;55.15;;;27.48;;
71150;SDS011;59071;42.138;24.768;2024-02-21T03:47:34;51.95;;;25.90;;
71150;SDS011;59071;42.138;24.768;2024-02-21T03:49:59;54.22;;;27.25;;
71150;SDS011;59071;42.138;24.768;2024-02-21T03:52:25;53.50;;;27.15;;
71150;SDS011;59071;42.138;24.768;2024-02-21T03:54:50;51.67;;;26.98;;
71150;SDS011;59071;42.138;24.768;2024-02-21T03:57:16;50.85;;;26.52;;
71150;SDS011;59071;42.138;24.768;2024-02-21T03:59:42;55.13;;;27.52;;
71150;SDS011;59071;42.138;24.768;2024-02-21T04:02:07;53.05;;;28.48;;
71150;SDS011;59071;42.138;24.768;2024-02-21T04:04:34;58.17;;;28.85;;
71150;SDS011;59071;42.138;24.768;2024-02-21T04:07:02;58.90;;;27.83;;
71150;SDS011;59071;42.138;24.768;2024-02-21T04:09:31;58.25;;;28.52;;
71150;SDS011;59071;42.138;24.768;2024-02-21T04:11:58;55.95;;;29.33;;
71150;SDS011;59071;42.138;24.768;2024-02-21T04:14:23;57.25;;;29.83;;
71150;SDS011;59071;42.138;24.768;2024-02-21T04:16:49;55.78;;;28.17;;
71150;SDS011;59071;42.138;24.768;2024-02-21T04:19:14;54.35;;;28.27;;
71150;SDS011;59071;42.138;24.768;2024-02-21T04:21:39;56.35;;;28.65;;
71150;SDS011;59071;42.138;24.768;2024-02-21T04:24:05;53.05;;;27.70;;
71150;SDS011;59071;42.138;24.768;2024-02-21T04:26:30;59.67;;;28.58;;
71150;SDS011;59071;42.138;24.768;2024-02-21T04:28:56;54.28;;;29.25;;
71150;SDS011;59071;42.138;24.768;2024-02-21T04:31:21;68.22;;;32.63;;
71150;SDS011;59071;42.138;24.768;2024-02-21T04:33:46;60.83;;;30.45;;
71150;SDS011;59071;42.138;24.768;2024-02-21T04:36:12;58.35;;;29.90;;
71150;SDS011;59071;42.138;24.768;2024-02-21T04:38:37;61.13;;;30.13;;
71150;SDS011;59071;42.138;24.768;2024-02-21T04:41:04;62.92;;;30.35;;
71150;SDS011;59071;42.138;24.768;2024-02-21T04:43:29;64.60;;;31.08;;
71150;SDS011;59071;42.138;24.768;2024-02-21T04:45:54;67.45;;;32.75;;
71150;SDS011;59071;42.138;24.768;2024-02-21T04:48:20;56.80;;;29.40;;
71150;SDS011;59071;42.138;24.768;2024-02-21T04:50:45;55.25;;;29.27;;
71150;SDS011;59071;42.138;24.768;2024-02-21T04:53:11;55.78;;;28.23;;
71150;SDS011;59071;42.138;24.768;2024-02-21T04:55:36;51.58;;;27.05;;
71150;SDS011;59071;42.138;24.768;2024-02-21T04:58:02;53.45;;;27.10;;
71150;SDS011;59071;42.138;24.768;2024-02-21T05:00:27;61.08;;;33.28;;
71150;SDS011;59071;42.138;24.768;2024-02-21T05:02:52;63.47;;;33.03;;
71150;SDS011;59071;42.138;24.768;2024-02-21T05:05:18;64.25;;;35.15;;
71150;SDS011;59071;42.138;24.768;2024-02-21T05:07:43;68.43;;;33.03;;
71150;SDS011;59071;42.138;24.768;2024-02-21T05:10:09;60.05;;;30.95;;
71150;SDS011;59071;42.138;24.768;2024-02-21T05:12:34;62.20;;;31.83;;
71150;SDS011;59071;42.138;24.768;2024-02-21T05:15:00;72.65;;;35.67;;
71150;SDS011;59071;42.138;24.768;2024-02-21T05:17:25;62.38;;;32.65;;
71150;SDS011;59071;42.138;24.768;2024-02-21T05:19:51;66.60;;;32.45;;
71150;SDS011;59071;42.138;24.768;2024-02-21T05:22:16;57.10;;;29.65;;
71150;SDS011;59071;42.138;24.768;2024-02-21T05:24:41;52.95;;;28.92;;
71150;SDS011;59071;42.138;24.768;2024-02-21T05:27:07;57.10;;;29.13;;
71150;SDS011;59071;42.138;24.768;2024-02-21T05:29:32;54.63;;;28.23;;
71150;SDS011;59071;42.138;24.768;2024-02-21T05:31:58;58.67;;;28.33;;
71150;SDS011;59071;42.138;24.768;2024-02-21T05:34:24;61.75;;;28.23;;
71150;SDS011;59071;42.138;24.768;2024-02-21T05:36:50;51.33;;;27.88;;
71150;SDS011;59071;42.138;24.768;2024-02-21T05:39:15;61.05;;;30.85;;
71150;SDS011;59071;42.138;24.768;2024-02-21T05:41:42;55.80;;;28.17;;
71150;SDS011;59071;42.138;24.768;2024-02-21T05:44:07;57.08;;;29.13;;
71150;SDS011;59071;42.138;24.768;2024-02-21T05:46:33;59.70;;;29.67;;
71150;SDS011;59071;42.138;24.768;2024-02-21T05:48:58;56.58;;;28.90;;
71150;SDS011;59071;42.138;24.768;2024-02-21T05:51:24;57.58;;;29.45;;
71150;SDS011;59071;42.138;24.768;2024-02-21T05:53:49;55.70;;;28.63;;
71150;SDS011;59071;42.138;24.768;2024-02-21T05:56:14;58.33;;;29.35;;
71150;SDS011;59071;42.138;24.768;2024-02-21T05:58:40;54.08;;;27.83;;
71150;SDS011;59071;42.138;24.768;2024-02-21T06:01:05;54.30;;;27.17;;
71150;SDS011;59071;42.138;24.768;2024-02-21T06:03:32;54.13;;;28.48;;
71150;SDS011;59071;42.138;24.768;2024-02-21T06:05:59;53.25;;;27.42;;
71150;SDS011;59071;42.138;24.768;2024-02-21T06:08:24;55.53;;;29.08;;
71150;SDS011;59071;42.138;24.768;2024-02-21T06:10:50;54.65;;;29.95;;
71150;SDS011;59071;42.138;24.768;2024-02-21T06:13:19;53.97;;;28.40;;
71150;SDS011;59071;42.138;24.768;2024-02-21T06:15:46;52.42;;;26.80;;
71150;SDS011;59071;42.138;24.768;2024-02-21T06:18:11;52.92;;;26.77;;
71150;SDS011;59071;42.138;24.768;2024-02-21T06:20:37;55.53;;;28.17;;
71150;SDS011;59071;42.138;24.768;2024-02-21T06:23:05;51.40;;;27.52;;
71150;SDS011;59071;42.138;24.768;2024-02-21T06:25:30;55.35;;;28.20;;
71150;SDS011;59071;42.138;24.768;2024-02-21T06:27:56;55.42;;;28.17;;
71150;SDS011;59071;42.138;24.768;2024-02-21T06:30:21;52.58;;;26.85;;
71150;SDS011;59071;42.138;24.768;2024-02-21T06:32:46;49.47;;;26.52;;
71150;SDS011;59071;42.138;24.768;2024-02-21T06:35:12;50.25;;;27.23;;
71150;SDS011;59071;42.138;24.768;2024-02-21T06:37:37;50.13;;;27.42;;
71150;SDS011;59071;42.138;24.768;2024-02-21T06:40:03;51.20;;;27.02;;
71150;SDS011;59071;42.138;24.768;2024-02-21T06:42:29;53.22;;;26.08;;
71150;SDS011;59071;42.138;24.768;2024-02-21T06:44:54;53.25;;;27.85;;
71150;SDS011;59071;42.138;24.768;2024-02-21T06:47:21;51.25;;;27.10;;
71150;SDS011;59071;42.138;24.768;2024-02-21T06:49:50;49.05;;;26.52;;
71150;SDS011;59071;42.138;24.768;2024-02-21T06:52:19;45.72;;;25.45;;
71150;SDS011;59071;42.138;24.768;2024-02-21T06:54:48;49.35;;;25.83;;
71150;SDS011;59071;42.138;24.768;2024-02-21T06:57:14;49.25;;;26.25;;
71150;SDS011;59071;42.138;24.768;2024-02-21T06:59:40;45.58;;;25.90;;
71150;SDS011;59071;42.138;24.768;2024-02-21T07:02:06;48.30;;;25.67;;
71150;SDS011;59071;42.138;24.768;2024-02-21T07:04:32;43.25;;;24.80;;
71150;SDS011;59071;42.138;24.768;2024-02-21T07:06:58;43.08;;;25.55;;
71150;SDS011;59071;42.138;24.768;2024-02-21T07:09:23;42.85;;;24.55;;
71150;SDS011;59071;42.138;24.768;2024-02-21T07:11:48;42.63;;;24.40;;
71150;SDS011;59071;42.138;24.768;2024-02-21T07:14:14;42.30;;;23.65;;
71150;SDS011;59071;42.138;24.768;2024-02-21T07:16:40;44.67;;;25.02;;
71150;SDS011;59071;42.138;24.768;2024-02-21T07:19:06;44.38;;;24.80;;
71150;SDS011;59071;42.138;24.768;2024-02-21T07:21:31;32.55;;;19.45;;
71150;SDS011;59071;42.138;24.768;2024-02-21T07:23:56;32.88;;;19.33;;
71150;SDS011;59071;42.138;24.768;2024-02-21T07:26:22;27.70;;;16.38;;
71150;SDS011;59071;42.138;24.768;2024-02-21T07:28:47;26.92;;;15.68;;
71150;SDS011;59071;42.138;24.768;2024-02-21T07:31:12;26.25;;;14.32;;
71150;SDS011;59071;42.138;24.768;2024-02-21T07:33:38;22.58;;;13.52;;
71150;SDS011;59071;42.138;24.768;2024-02-21T07:36:10;23.27;;;13.65;;
71150;SDS011;59071;42.138;24.768;2024-02-21T07:38:36;19.83;;;12.35;;
71150;SDS011;59071;42.138;24.768;2024-02-21T07:41:02;22.92;;;13.15;;
71150;SDS011;59071;42.138;24.768;2024-02-21T07:43:29;21.80;;;13.85;;
71150;SDS011;59071;42.138;24.768;2024-02-21T07:45:54;20.80;;;13.07;;
71150;SDS011;59071;42.138;24.768;2024-02-21T07:48:20;22.73;;;13.65;;
71150;SDS011;59071;42.138;24.768;2024-02-21T07:50:49;21.95;;;13.27;;
71150;SDS011;59071;42.138;24.768;2024-02-21T07:53:15;24.58;;;14.10;;
71150;SDS011;59071;42.138;24.768;2024-02-21T07:55:40;26.17;;;14.80;;
71150;SDS011;59071;42.138;24.768;2024-02-21T07:58:06;21.55;;;13.48;;
71150;SDS011;59071;42.138;24.768;2024-02-21T08:00:31;20.83;;;13.38;;
71150;SDS011;59071;42.138;24.768;2024-02-21T08:02:57;20.00;;;12.90;;
71150;SDS011;59071;42.138;24.768;2024-02-21T08:05:22;21.83;;;13.20;;
71150;SDS011;59071;42.138;24.768;2024-02-21T08:07:48;21.42;;;12.85;;
71150;SDS011;59071;42.138;24.768;2024-02-21T08:10:13;23.35;;;14.27;;
71150;SDS011;59071;42.138;24.768;2024-02-21T08:12:39;21.15;;;13.18;;
71150;SDS011;59071;42.138;24.768;2024-02-21T08:15:04;18.92;;;10.98;;
71150;SDS011;59071;42.138;24.768;2024-02-21T08:17:30;18.42;;;12.05;;
71150;SDS011;59071;42.138;24.768;2024-02-21T08:19:55;19.42;;;11.82;;
71150;SDS011;59071;42.138;24.768;2024-02-21T08:22:20;18.05;;;11.73;;
71150;SDS011;59071;42.138;24.768;2024-02-21T08:24:46;19.27;;;12.15;;
71150;SDS011;59071;42.138;24.768;2024-02-21T08:27:11;20.20;;;12.23;;
71150;SDS011;59071;42.138;24.768;2024-02-21T08:29:36;18.38;;;11.50;;
71150;SDS011;59071;42.138;24.768;2024-02-21T08:32:02;16.45;;;10.18;;
71150;SDS011;59071;42.138;24.768;2024-02-21T08:34:27;15.98;;;9.75;;
71150;SDS011;59071;42.138;24.768;2024-02-21T08:36:55;16.45;;;10.40;;
71150;SDS011;59071;42.138;24.768;2024-02-21T08:39:21;18.95;;;10.32;;
71150;SDS011;59071;42.138;24.768;2024-02-21T08:41:46;19.80;;;10.30;;
71150;SDS011;59071;42.138;24.768;2024-02-21T08:44:11;17.77;;;9.95;;
71150;SDS011;59071;42.138;24.768;2024-02-21T08:46:37;13.48;;;8.80;;
71150;SDS011;59071;42.138;24.768;2024-02-21T08:49:05;13.82;;;8.73;;
71150;SDS011;59071;42.138;24.768;2024-02-21T08:51:31;13.48;;;9.00;;
71150;SDS011;59071;42.138;24.768;2024-02-21T08:53:56;16.48;;;8.80;;
71150;SDS011;59071;42.138;24.768;2024-02-21T08:56:21;14.38;;;9.55;;
71150;SDS011;59071;42.138;24.768;2024-02-21T08:58:47;12.27;;;8.55;;
71150;SDS011;59071;42.138;24.768;2024-02-21T09:01:12;12.77;;;9.10;;
71150;SDS011;59071;42.138;24.768;2024-02-21T09:03:37;15.15;;;9.95;;
71150;SDS011;59071;42.138;24.768;2024-02-21T09:06:04;14.98;;;9.60;;
71150;SDS011;59071;42.138;24.768;2024-02-21T09:08:30;15.27;;;9.45;;
71150;SDS011;59071;42.138;24.768;2024-02-21T09:10:55;16.13;;;9.05;;
71150;SDS011;59071;42.138;24.768;2024-02-21T09:13:20;12.98;;;9.20;;
71150;SDS011;59071;42.138;24.768;2024-02-21T09:15:47;12.40;;;8.60;;
71150;SDS011;59071;42.138;24.768;2024-02-21T09:18:13;13.25;;;8.93;;
71150;SDS011;59071;42.138;24.768;2024-02-21T09:20:39;17.23;;;9.98;;
71150;SDS011;59071;42.138;24.768;2024-02-21T09:23:04;16.25;;;10.48;;
71150;SDS011;59071;42.138;24.768;2024-02-21T09:25:30;14.63;;;9.57;;
71150;SDS011;59071;42.138;24.768;2024-02-21T09:27:56;15.50;;;9.40;;
71150;SDS011;59071;42.138;24.768;2024-02-21T09:30:23;12.88;;;9.18;;
71150;SDS011;59071;42.138;24.768;2024-02-21T09:32:49;13.75;;;9.60;;
71150;SDS011;59071;42.138;24.768;2024-02-21T09:35:14;14.77;;;9.32;;
71150;SDS011;59071;42.138;24.768;2024-02-21T09:37:40;13.43;;;9.43;;
71150;SDS011;59071;42.138;24.768;2024-02-21T09:40:05;15.63;;;9.60;;
71150;SDS011;59071;42.138;24.768;2024-02-21T09:42:38;13.10;;;9.05;;
71150;SDS011;59071;42.138;24.768;2024-02-21T09:50:39;13.70;;;9.40;;
71150;SDS011;59071;42.138;24.768;2024-02-21T09:53:06;12.15;;;7.68;;
71150;SDS011;59071;42.138;24.768;2024-02-21T09:55:32;10.73;;;7.88;;
71150;SDS011;59071;42.138;24.768;2024-02-21T09:57:59;10.13;;;7.50;;
71150;SDS011;59071;42.138;24.768;2024-02-21T10:00:26;11.40;;;7.47;;
71150;SDS011;59071;42.138;24.768;2024-02-21T10:02:52;11.27;;;7.22;;
71150;SDS011;59071;42.138;24.768;2024-02-21T10:05:18;9.77;;;6.95;;
71150;SDS011;59071;42.138;24.768;2024-02-21T10:07:44;10.25;;;6.72;;
71150;SDS011;59071;42.138;24.768;2024-02-21T10:10:10;8.57;;;6.63;;
71150;SDS011;59071;42.138;24.768;2024-02-21T10:12:36;9.48;;;6.78;;
71150;SDS011;59071;42.138;24.768;2024-02-21T10:15:02;8.88;;;6.43;;
71150;SDS011;59071;42.138;24.768;2024-02-21T10:17:29;10.50;;;7.10;;
71150;SDS011;59071;42.138;24.768;2024-02-21T10:20:06;11.15;;;7.22;;
71150;SDS011;59071;42.138;24.768;2024-02-21T10:22:32;9.93;;;6.95;;
71150;SDS011;59071;42.138;24.768;2024-02-21T10:25:07;8.63;;;6.50;;
71150;SDS011;59071;42.138;24.768;2024-02-21T10:27:36;10.68;;;7.07;;
71150;SDS011;59071;42.138;24.768;2024-02-21T10:30:02;9.45;;;6.95;;
71150;SDS011;59071;42.138;24.768;2024-02-21T10:32:32;12.43;;;7.03;;
71150;SDS011;59071;42.138;24.768;2024-02-21T10:35:01;9.48;;;6.97;;
71150;SDS011;59071;42.138;24.768;2024-02-21T10:37:29;10.50;;;6.82;;
71150;SDS011;59071;42.138;24.768;2024-02-21T10:39:55;12.40;;;7.10;;
71150;SDS011;59071;42.138;24.768;2024-02-21T10:42:21;9.32;;;6.32;;
71150;SDS011;59071;42.138;24.768;2024-02-21T10:44:48;10.65;;;6.07;;
71150;SDS011;59071;42.138;24.768;2024-02-21T10:47:16;9.95;;;6.82;;
71150;SDS011;59071;42.138;24.768;2024-02-21T10:49:46;9.50;;;6.22;;
71150;SDS011;59071;42.138;24.768;2024-02-21T10:55:26;8.45;;;6.10;;
71150;SDS011;59071;42.138;24.768;2024-02-21T10:57:58;8.63;;;6.60;;
71150;SDS011;59071;42.138;24.768;2024-02-21T11:00:24;9.02;;;6.40;;
71150;SDS011;59071;42.138;24.768;2024-02-21T11:02:55;8.30;;;6.18;;
71150;SDS011;59071;42.138;24.768;2024-02-21T11:05:22;9.18;;;6.50;;
71150;SDS011;59071;42.138;24.768;2024-02-21T11:07:49;9.63;;;6.10;;
71150;SDS011;59071;42.138;24.768;2024-02-21T11:10:25;11.60;;;7.18;;
71150;SDS011;59071;42.138;24.768;2024-02-21T11:13:07;8.35;;;5.78;;
71150;SDS011;59071;42.138;24.768;2024-02-21T11:15:33;8.30;;;6.40;;
71150;SDS011;59071;42.138;24.768;2024-02-21T11:17:59;8.00;;;5.60;;
71150;SDS011;59071;42.138;24.768;2024-02-21T11:20:37;9.63;;;5.60;;
71150;SDS011;59071;42.138;24.768;2024-02-21T11:23:03;7.65;;;5.70;;
71150;SDS011;59071;42.138;24.768;2024-02-21T11:25:29;6.60;;;5.70;;
71150;SDS011;59071;42.138;24.768;2024-02-21T11:28:04;7.25;;;5.85;;
71150;SDS011;59071;42.138;24.768;2024-02-21T11:30:36;8.00;;;6.20;;
71150;SDS011;59071;42.138;24.768;2024-02-21T11:33:03;7.70;;;5.30;;
71150;SDS011;59071;42.138;24.768;2024-02-21T11:35:32;8.07;;;5.60;;
71150;SDS011;59071;42.138;24.768;2024-02-21T11:38:12;6.80;;;5.20;;
71150;SDS011;59071;42.138;24.768;2024-02-21T11:40:44;6.35;;;5.18;;
71150;SDS011;59071;42.138;24.768;2024-02-21T11:43:11;8.18;;;5.40;;
71150;SDS011;59071;42.138;24.768;2024-02-21T11:45:36;9.30;;;6.35;;
71150;SDS011;59071;42.138;24.768;2024-02-21T11:48:02;7.57;;;5.72;;
71150;SDS011;59071;42.138;24.768;2024-02-21T11:50:30;7.43;;;4.75;;
71150;SDS011;59071;42.138;24.768;2024-02-21T11:52:56;6.03;;;4.82;;
71150;SDS011;59071;42.138;24.768;2024-02-21T11:55:22;5.95;;;4.72;;
71150;SDS011;59071;42.138;24.768;2024-02-21T11:57:48;7.80;;;5.00;;
71150;SDS011;59071;42.138;24.768;2024-02-21T12:00:14;7.32;;;5.38;;
71150;SDS011;59071;42.138;24.768;2024-02-21T12:02:41;7.60;;;4.90;;
71150;SDS011;59071;42.138;24.768;2024-02-21T12:05:07;7.85;;;5.22;;
71150;SDS011;59071;42.138;24.768;2024-02-21T12:07:33;5.95;;;4.82;;
71150;SDS011;59071;42.138;24.768;2024-02-21T12:09:59;8.38;;;5.28;;
71150;SDS011;59071;42.138;24.768;2024-02-21T12:12:25;7.60;;;5.07;;
71150;SDS011;59071;42.138;24.768;2024-02-21T12:14:54;6.57;;;4.72;;
71150;SDS011;59071;42.138;24.768;2024-02-21T12:17:20;6.88;;;5.40;;
71150;SDS011;59071;42.138;24.768;2024-02-21T12:19:46;7.45;;;5.10;;
71150;SDS011;59071;42.138;24.768;2024-02-21T12:22:18;6.57;;;5.03;;
71150;SDS011;59071;42.138;24.768;2024-02-21T12:24:44;7.38;;;5.25;;
71150;SDS011;59071;42.138;24.768;2024-02-21T12:27:13;6.90;;;5.07;;
71150;SDS011;59071;42.138;24.768;2024-02-21T12:29:38;6.47;;;4.85;;
71150;SDS011;59071;42.138;24.768;2024-02-21T12:32:04;8.88;;;5.45;;
71150;SDS011;59071;42.138;24.768;2024-02-21T12:34:29;8.27;;;6.30;;
71150;SDS011;59071;42.138;24.768;2024-02-21T12:36:58;7.00;;;5.00;;
71150;SDS011;59071;42.138;24.768;2024-02-21T12:39:23;6.55;;;4.68;;
71150;SDS011;59071;42.138;24.768;2024-02-21T12:41:49;8.07;;;4.20;;
71150;SDS011;59071;42.138;24.768;2024-02-21T12:44:14;6.15;;;4.80;;
71150;SDS011;59071;42.138;24.768;2024-02-21T12:46:41;6.03;;;4.97;;
71150;SDS011;59071;42.138;24.768;2024-02-21T12:49:07;8.07;;;5.03;;
71150;SDS011;59071;42.138;24.768;2024-02-21T12:51:35;7.22;;;4.80;;
71150;SDS011;59071;42.138;24.768;2024-02-21T12:54:01;7.45;;;4.95;;
71150;SDS011;59071;42.138;24.768;2024-02-21T12:56:30;6.20;;;4.80;;
71150;SDS011;59071;42.138;24.768;2024-02-21T12:58:56;7.15;;;4.85;;
71150;SDS011;59071;42.138;24.768;2024-02-21T13:01:22;7.20;;;4.82;;
71150;SDS011;59071;42.138;24.768;2024-02-21T13:03:47;6.07;;;4.40;;
71150;SDS011;59071;42.138;24.768;2024-02-21T13:06:13;6.07;;;4.40;;
71150;SDS011;59071;42.138;24.768;2024-02-21T13:08:38;5.25;;;3.65;;
71150;SDS011;59071;42.138;24.768;2024-02-21T13:11:04;5.32;;;4.00;;
71150;SDS011;59071;42.138;24.768;2024-02-21T13:13:30;5.32;;;3.90;;
71150;SDS011;59071;42.138;24.768;2024-02-21T13:15:56;4.85;;;3.42;;
71150;SDS011;59071;42.138;24.768;2024-02-21T13:18:22;4.70;;;3.45;;
71150;SDS011;59071;42.138;24.768;2024-02-21T13:20:48;5.82;;;3.40;;
71150;SDS011;59071;42.138;24.768;2024-02-21T13:23:13;6.38;;;3.40;;
71150;SDS011;59071;42.138;24.768;2024-02-21T13:25:39;4.75;;;3.25;;
71150;SDS011;59071;42.138;24.768;2024-02-21T13:28:04;9.38;;;3.70;;
71150;SDS011;59071;42.138;24.768;2024-02-21T13:30:30;5.55;;;3.58;;
71150;SDS011;59071;42.138;24.768;2024-02-21T13:32:55;4.85;;;3.65;;
71150;SDS011;59071;42.138;24.768;2024-02-21T13:35:21;4.95;;;3.42;;
71150;SDS011;59071;42.138;24.768;2024-02-21T13:37:46;6.05;;;3.70;;
71150;SDS011;59071;42.138;24.768;2024-02-21T13:40:12;6.97;;;3.20;;
71150;SDS011;59071;42.138;24.768;2024-02-21T13:42:38;5.78;;;3.20;;
71150;SDS011;59071;42.138;24.768;2024-02-21T13:45:04;4.20;;;3.40;;
71150;SDS011;59071;42.138;24.768;2024-02-21T13:47:31;4.28;;;3.28;;
71150;SDS011;59071;42.138;24.768;2024-02-21T13:49:57;4.85;;;3.40;;
71150;SDS011;59071;42.138;24.768;2024-02-21T13:52:23;4.78;;;3.47;;
71150;SDS011;59071;42.138;24.768;2024-02-21T13:54:51;4.40;;;3.60;;
71150;SDS011;59071;42.138;24.768;2024-02-21T13:57:16;6.00;;;3.55;;
71150;SDS011;59071;42.138;24.768;2024-02-21T13:59:42;5.45;;;3.70;;
71150;SDS011;59071;42.138;24.768;2024-02-21T14:02:07;5.93;;;3.70;;
71150;SDS011;59071;42.138;24.768;2024-02-21T14:04:33;5.82;;;3.80;;
71150;SDS011;59071;42.138;24.768;2024-02-21T14:06:59;5.30;;;3.65;;
71150;SDS011;59071;42.138;24.768;2024-02-21T14:09:25;4.82;;;3.28;;
71150;SDS011;59071;42.138;24.768;2024-02-21T14:11:51;5.75;;;3.80;;
71150;SDS011;59071;42.138;24.768;2024-02-21T14:14:16;4.45;;;3.30;;
71150;SDS011;59071;42.138;24.768;2024-02-21T14:16:41;3.50;;;2.58;;
71150;SDS011;59071;42.138;24.768;2024-02-21T14:19:07;4.30;;;2.75;;
71150;SDS011;59071;42.138;24.768;2024-02-21T14:21:33;5.15;;;3.00;;